createdAt,value
2023-04-09T00:01:07.348Z,13.73
2023-04-09T00:01:29.853Z,16.25
2023-04-09T00:03:56.361Z,15.25
2023-04-09T00:06:07.248Z,15.25
2023-04-09T00:06:22.808Z,12.55
2023-04-09T00:08:49.369Z,19.48
2023-04-09T00:11:07.212Z,19.48
2023-04-09T00:11:15.942Z,15.13
2023-04-09T00:13:42.341Z,12.82
2023-04-09T00:16:07.270Z,12.82
2023-04-09T00:16:08.912Z,15.90
2023-04-09T00:18:35.647Z,19.55
2023-04-09T00:21:02.185Z,13.98
2023-04-09T00:21:07.253Z,13.98
2023-04-09T00:23:28.633Z,11.98
2023-04-09T00:25:55.157Z,16.50
2023-04-09T00:26:07.250Z,16.50
2023-04-09T00:28:21.645Z,13.88
2023-04-09T00:30:48.039Z,13.35
2023-04-09T00:31:07.238Z,13.35
2023-04-09T00:33:14.459Z,18.05
2023-04-09T00:35:41.136Z,10.95
2023-04-09T00:36:07.266Z,10.95
2023-04-09T00:38:07.558Z,12.63
2023-04-09T00:40:33.994Z,19.95
2023-04-09T00:41:07.227Z,19.95
2023-04-09T00:43:01.101Z,11.52
2023-04-09T00:45:27.619Z,12.50
2023-04-09T00:46:07.327Z,12.50
2023-04-09T00:47:54.402Z,14.35
2023-04-09T00:50:21.504Z,15.65
2023-04-09T00:51:07.256Z,15.65
2023-04-09T00:52:47.998Z,14.68
2023-04-09T00:55:14.964Z,14.57
2023-04-09T00:56:07.335Z,14.57
2023-04-09T00:57:41.354Z,14.23
2023-04-09T01:00:08.481Z,12.57
2023-04-09T01:01:07.244Z,12.57
2023-04-09T01:02:35.189Z,14.73
2023-04-09T01:05:02.024Z,17.92
2023-04-09T01:06:07.261Z,17.92
2023-04-09T01:07:36.916Z,20.85
2023-04-09T01:10:15.432Z,12.82
2023-04-09T01:11:07.240Z,12.82
2023-04-09T01:13:00.461Z,16.50
2023-04-09T01:15:31.249Z,14.32
2023-04-09T01:16:07.284Z,14.32
2023-04-09T01:18:23.528Z,11.02
2023-04-09T01:21:02.789Z,14.68
2023-04-09T01:21:07.242Z,14.68
2023-04-09T01:23:32.435Z,12.07
2023-04-09T01:26:17.032Z,11.27
2023-04-09T01:26:17.188Z,11.27
2023-04-09T01:28:46.471Z,9.05
2023-04-09T01:31:07.402Z,9.05
2023-04-09T01:31:15.014Z,12.20
2023-04-09T01:33:42.282Z,12.23
2023-04-09T01:36:07.325Z,12.23
2023-04-09T01:36:09.573Z,16.73
2023-04-09T01:38:39.027Z,14.40
2023-04-09T01:41:07.590Z,14.00
2023-04-09T01:41:08.263Z,14.00
2023-04-09T01:43:34.818Z,10.38
2023-04-09T01:46:03.395Z,10.48
2023-04-09T01:46:07.287Z,10.48
2023-04-09T01:48:31.469Z,11.95
2023-04-09T01:50:59.083Z,11.35
2023-04-09T01:51:07.262Z,11.35
2023-04-09T01:53:28.281Z,14.63
2023-04-09T01:55:58.142Z,14.15
2023-04-09T01:56:07.266Z,14.15
2023-04-09T01:58:25.609Z,8.68
2023-04-09T02:01:03.496Z,8.30
2023-04-09T02:01:07.290Z,8.30
2023-04-09T02:03:37.886Z,11.07
2023-04-09T02:06:17.180Z,10.98
2023-04-09T02:06:17.352Z,10.98
2023-04-09T02:08:47.082Z,8.80
2023-04-09T02:11:07.223Z,8.80
2023-04-09T02:11:15.843Z,17.55
2023-04-09T02:13:43.345Z,14.05
2023-04-09T02:16:07.257Z,14.05
2023-04-09T02:16:12.970Z,14.18
2023-04-09T02:18:39.409Z,12.55
2023-04-09T02:21:06.481Z,11.68
2023-04-09T02:21:07.245Z,11.68
2023-04-09T02:23:33.503Z,11.38
2023-04-09T02:25:59.840Z,16.75
2023-04-09T02:26:07.243Z,16.75
2023-04-09T02:28:26.202Z,9.98
2023-04-09T02:30:52.749Z,11.95
2023-04-09T02:31:07.331Z,11.95
2023-04-09T02:33:19.182Z,13.13
2023-04-09T02:35:45.787Z,17.48
2023-04-09T02:36:07.331Z,17.48
2023-04-09T02:38:16.021Z,14.70
2023-04-09T02:40:42.754Z,15.02
2023-04-09T02:41:07.256Z,15.02
2023-04-09T02:43:09.808Z,11.55
2023-04-09T02:45:36.372Z,12.13
2023-04-09T02:46:07.352Z,12.13
2023-04-09T02:48:02.750Z,14.30
2023-04-09T02:50:29.505Z,12.93
2023-04-09T02:51:07.243Z,12.93
2023-04-09T02:52:55.973Z,11.50
2023-04-09T02:55:22.482Z,10.65
2023-04-09T02:56:07.295Z,10.65
2023-04-09T02:57:48.892Z,10.40
2023-04-09T03:00:15.337Z,17.73
2023-04-09T03:01:07.279Z,17.73
2023-04-09T03:02:42.019Z,20.27
2023-04-09T03:05:08.895Z,11.52
2023-04-09T03:06:07.283Z,11.52
2023-04-09T03:07:35.303Z,14.77
2023-04-09T03:10:01.737Z,13.77
2023-04-09T03:11:07.280Z,13.77
2023-04-09T03:12:28.190Z,15.25
2023-04-09T03:14:54.618Z,12.25
2023-04-09T03:16:07.393Z,12.25
2023-04-09T03:17:21.144Z,9.90
2023-04-09T03:19:47.475Z,9.48
2023-04-09T03:21:07.287Z,9.48
2023-04-09T03:22:13.934Z,10.07
2023-04-09T03:24:40.482Z,11.30
2023-04-09T03:26:07.293Z,11.30
2023-04-09T03:27:06.811Z,16.77
2023-04-09T03:29:33.164Z,15.80
2023-04-09T03:31:07.336Z,15.80
2023-04-09T03:31:59.524Z,7.78
2023-04-09T03:34:25.901Z,11.20
2023-04-09T03:36:07.344Z,11.20
2023-04-09T03:36:52.251Z,9.43
2023-04-09T03:39:18.602Z,8.65
2023-04-09T03:41:07.288Z,8.65
2023-04-09T03:41:45.013Z,9.60
2023-04-09T03:44:11.370Z,10.82
2023-04-09T03:46:07.383Z,10.82
2023-04-09T03:46:37.771Z,10.95
2023-04-09T03:49:04.298Z,14.68
2023-04-09T03:51:07.297Z,14.68
2023-04-09T03:51:31.781Z,9.60
2023-04-09T03:53:58.113Z,8.50
2023-04-09T03:56:07.311Z,8.50
2023-04-09T03:56:24.439Z,12.10
2023-04-09T03:58:51.023Z,9.32
2023-04-09T04:01:07.330Z,9.32
2023-04-09T04:01:17.667Z,7.47
2023-04-09T04:03:44.231Z,7.47
2023-04-09T04:06:07.284Z,7.47
2023-04-09T04:06:10.732Z,7.47
2023-04-09T04:08:37.089Z,9.98
2023-04-09T04:11:05.019Z,7.60
2023-04-09T04:11:07.307Z,7.60
2023-04-09T04:13:31.781Z,8.95
2023-04-09T04:15:58.210Z,8.80
2023-04-09T04:16:07.398Z,8.80
2023-04-09T04:18:24.617Z,10.27
2023-04-09T04:20:51.183Z,9.07
2023-04-09T04:21:07.264Z,9.07
2023-04-09T04:23:17.610Z,7.47
2023-04-09T04:25:43.959Z,12.43
2023-04-09T04:26:07.293Z,12.43
2023-04-09T04:28:10.356Z,8.15
2023-04-09T04:30:36.783Z,9.70
2023-04-09T04:31:07.341Z,9.70
2023-04-09T04:33:03.302Z,8.88
2023-04-09T04:35:29.691Z,8.43
2023-04-09T04:36:07.310Z,8.43
2023-04-09T04:37:56.162Z,7.80
2023-04-09T04:40:22.538Z,14.18
2023-04-09T04:41:07.304Z,14.18
2023-04-09T04:42:49.005Z,11.80
2023-04-09T04:45:15.482Z,13.55
2023-04-09T04:46:07.329Z,13.55
2023-04-09T04:47:41.914Z,10.43
2023-04-09T04:50:09.074Z,7.32
2023-04-09T04:51:07.311Z,7.32
2023-04-09T04:52:36.496Z,7.15
2023-04-09T04:55:02.942Z,13.35
2023-04-09T04:56:07.356Z,13.35
2023-04-09T04:57:29.358Z,10.43
2023-04-09T04:59:55.757Z,12.65
2023-04-09T05:01:07.344Z,12.65
2023-04-09T05:02:22.288Z,8.50
2023-04-09T05:04:48.688Z,7.32
2023-04-09T05:06:07.310Z,7.32
2023-04-09T05:07:15.538Z,7.13
2023-04-09T05:09:42.905Z,8.80
2023-04-09T05:11:07.310Z,8.80
2023-04-09T05:12:11.913Z,9.80
2023-04-09T05:14:38.212Z,7.03
2023-04-09T05:16:07.307Z,7.03
2023-04-09T05:17:04.790Z,7.88
2023-04-09T05:19:33.598Z,7.20
2023-04-09T05:21:07.295Z,7.20
2023-04-09T05:22:00.065Z,9.88
2023-04-09T05:24:26.434Z,8.38
2023-04-09T05:26:07.289Z,8.38
2023-04-09T05:26:52.823Z,8.35
2023-04-09T05:29:19.145Z,6.28
2023-04-09T05:31:07.369Z,6.28
2023-04-09T05:31:45.582Z,9.02
2023-04-09T05:34:12.050Z,8.00
2023-04-09T05:36:07.363Z,8.00
2023-04-09T05:36:38.383Z,10.82
2023-04-09T05:39:04.785Z,10.75
2023-04-09T05:41:07.290Z,10.75
2023-04-09T05:41:32.592Z,8.30
2023-04-09T05:44:00.844Z,7.57
2023-04-09T05:46:07.350Z,7.57
2023-04-09T05:46:30.016Z,9.40
2023-04-09T05:48:56.668Z,10.80
2023-04-09T05:51:07.301Z,10.80
2023-04-09T05:51:23.070Z,8.50
2023-04-09T05:53:49.902Z,12.02
2023-04-09T05:56:07.321Z,12.02
2023-04-09T05:56:16.525Z,9.20
2023-04-09T05:58:42.917Z,15.45
2023-04-09T06:01:07.302Z,15.45
2023-04-09T06:01:10.218Z,11.75
2023-04-09T06:03:36.898Z,17.35
2023-04-09T06:06:03.436Z,18.30
2023-04-09T06:06:07.383Z,18.30
2023-04-09T06:08:29.846Z,16.92
2023-04-09T06:10:56.261Z,10.55
2023-04-09T06:11:07.347Z,10.55
2023-04-09T06:13:22.739Z,13.07
2023-04-09T06:15:49.137Z,11.88
2023-04-09T06:16:07.409Z,11.88
2023-04-09T06:18:15.653Z,10.63
2023-04-09T06:20:41.981Z,10.68
2023-04-09T06:21:07.343Z,10.68
2023-04-09T06:23:08.329Z,11.10
2023-04-09T06:25:36.426Z,10.43
2023-04-09T06:26:07.354Z,10.43
2023-04-09T06:28:03.140Z,21.67
2023-04-09T06:30:30.925Z,11.38
2023-04-09T06:31:08.532Z,11.38
2023-04-09T06:32:57.266Z,13.30
2023-04-09T06:35:23.733Z,8.07
2023-04-09T06:36:07.415Z,8.07
2023-04-09T06:37:50.315Z,9.32
2023-04-09T06:40:16.721Z,17.90
2023-04-09T06:41:07.354Z,17.90
2023-04-09T06:42:43.153Z,10.75
2023-04-09T06:45:12.126Z,18.98
2023-04-09T06:46:07.397Z,18.98
2023-04-09T06:47:38.530Z,12.05
2023-04-09T06:50:05.644Z,11.23
2023-04-09T06:51:07.363Z,11.23
2023-04-09T06:52:32.055Z,11.55
2023-04-09T06:54:58.436Z,12.15
2023-04-09T06:56:07.339Z,12.15
2023-04-09T06:57:26.239Z,8.45
2023-04-09T06:59:52.711Z,10.18
2023-04-09T07:01:07.349Z,10.18
2023-04-09T07:02:19.223Z,11.98
2023-04-09T07:04:45.926Z,10.05
2023-04-09T07:06:07.351Z,10.05
2023-04-09T07:07:12.575Z,10.32
2023-04-09T07:09:39.245Z,10.55
2023-04-09T07:11:07.361Z,10.55
2023-04-09T07:12:05.702Z,8.75
2023-04-09T07:14:32.100Z,8.05
2023-04-09T07:16:07.350Z,8.05
2023-04-09T07:16:58.541Z,7.20
2023-04-09T07:19:24.892Z,9.57
2023-04-09T07:21:07.309Z,9.57
2023-04-09T07:21:51.377Z,9.88
2023-04-09T07:24:17.827Z,9.52
2023-04-09T07:26:07.354Z,9.52
2023-04-09T07:26:44.227Z,7.55
2023-04-09T07:29:10.602Z,12.32
2023-04-09T07:31:07.422Z,12.32
2023-04-09T07:31:37.111Z,8.77
2023-04-09T07:34:03.686Z,7.15
2023-04-09T07:36:07.340Z,7.15
2023-04-09T07:36:31.806Z,11.43
2023-04-09T07:38:58.261Z,11.10
2023-04-09T07:41:07.347Z,11.10
2023-04-09T07:41:24.726Z,9.73
2023-04-09T07:43:51.455Z,9.38
2023-04-09T07:46:07.389Z,9.38
2023-04-09T07:46:21.707Z,9.25
2023-04-09T07:48:49.965Z,8.45
2023-04-09T07:51:07.336Z,8.45
2023-04-09T07:51:16.602Z,10.27
2023-04-09T07:53:43.038Z,8.23
2023-04-09T07:56:07.346Z,8.23
2023-04-09T07:56:09.388Z,8.52
2023-04-09T07:58:38.006Z,8.13
2023-04-09T08:01:04.788Z,7.57
2023-04-09T08:01:07.360Z,7.57
2023-04-09T08:03:31.581Z,9.23
2023-04-09T08:05:58.142Z,7.65
2023-04-09T08:06:07.366Z,7.65
2023-04-09T08:08:25.045Z,13.48
2023-04-09T08:10:51.551Z,10.68
2023-04-09T08:11:07.366Z,10.68
2023-04-09T08:13:17.960Z,15.70
2023-04-09T08:15:44.366Z,6.90
2023-04-09T08:16:07.351Z,6.90
2023-04-09T08:18:10.823Z,8.23
2023-04-09T08:20:37.838Z,7.40
2023-04-09T08:21:07.348Z,7.40
2023-04-09T08:23:04.260Z,6.78
2023-04-09T08:25:30.906Z,10.98
2023-04-09T08:26:07.339Z,10.98
2023-04-09T08:27:58.122Z,7.75
2023-04-09T08:30:24.581Z,11.23
2023-04-09T08:31:07.422Z,11.23
2023-04-09T08:32:50.996Z,8.82
2023-04-09T08:35:17.478Z,8.70
2023-04-09T08:36:07.397Z,8.70
2023-04-09T08:37:43.936Z,7.68
2023-04-09T08:40:11.654Z,9.00
2023-04-09T08:41:07.361Z,9.00
2023-04-09T08:42:45.846Z,8.63
2023-04-09T08:45:12.932Z,12.63
2023-04-09T08:46:07.390Z,12.63
2023-04-09T08:47:42.578Z,10.30
2023-04-09T08:50:09.264Z,8.05
2023-04-09T08:51:07.362Z,8.05
2023-04-09T08:52:36.969Z,9.23
2023-04-09T08:55:03.621Z,7.53
2023-04-09T08:56:07.390Z,7.53
2023-04-09T08:57:30.403Z,6.85
2023-04-09T08:59:57.087Z,7.57
2023-04-09T09:01:07.434Z,7.57
2023-04-09T09:02:24.250Z,6.03
2023-04-09T09:04:50.906Z,6.53
2023-04-09T09:06:07.340Z,6.53
2023-04-09T09:07:18.194Z,6.50
2023-04-09T09:09:56.143Z,7.18
2023-04-09T09:11:07.340Z,7.18
2023-04-09T09:12:32.822Z,7.40
2023-04-09T09:14:59.626Z,6.93
2023-04-09T09:16:07.334Z,6.93
2023-04-09T09:17:26.511Z,9.80
2023-04-09T09:19:52.926Z,11.90
2023-04-09T09:21:07.569Z,11.90
2023-04-09T09:22:19.306Z,8.32
2023-04-09T09:24:51.127Z,7.38
2023-04-09T09:26:07.385Z,7.38
2023-04-09T09:27:40.250Z,6.70
2023-04-09T09:30:08.690Z,6.45
2023-04-09T09:31:07.474Z,6.45
2023-04-09T09:32:35.828Z,6.32
2023-04-09T09:35:05.647Z,6.10
2023-04-09T09:36:07.392Z,6.10
2023-04-09T09:37:32.853Z,6.47
2023-04-09T09:40:00.251Z,6.32
2023-04-09T09:41:07.423Z,6.32
2023-04-09T09:42:32.741Z,6.10
2023-04-09T09:45:02.515Z,7.32
2023-04-09T09:46:07.398Z,7.32
2023-04-09T09:47:38.875Z,5.90
2023-04-09T09:50:05.852Z,10.30
2023-04-09T09:51:07.346Z,10.30
2023-04-09T09:52:32.497Z,5.70
2023-04-09T09:55:05.251Z,6.85
2023-04-09T09:56:07.342Z,6.85
2023-04-09T09:57:42.502Z,14.85
2023-04-09T10:00:12.500Z,5.65
2023-04-09T10:01:07.391Z,5.65
2023-04-09T10:02:56.595Z,5.95
2023-04-09T10:05:26.781Z,6.32
2023-04-09T10:06:07.348Z,6.32
2023-04-09T10:07:57.256Z,6.35
2023-04-09T10:10:25.836Z,6.03
2023-04-09T10:11:07.395Z,6.03
2023-04-09T10:12:52.653Z,7.13
2023-04-09T10:15:19.786Z,6.72
2023-04-09T10:16:07.480Z,6.72
2023-04-09T10:17:46.319Z,6.35
2023-04-09T10:20:19.614Z,6.57
2023-04-09T10:21:07.365Z,6.57
2023-04-09T10:22:49.152Z,6.43
2023-04-09T10:25:16.454Z,6.40
2023-04-09T10:26:07.349Z,6.40
2023-04-09T10:27:46.108Z,7.53
2023-04-09T10:30:34.580Z,5.90
2023-04-09T10:31:07.651Z,5.90
2023-04-09T10:33:13.797Z,7.05
2023-04-09T10:35:40.322Z,5.97
2023-04-09T10:36:07.419Z,5.97
2023-04-09T10:38:10.764Z,6.63
2023-04-09T10:40:42.384Z,6.15
2023-04-09T10:41:07.358Z,6.15
2023-04-09T10:43:10.385Z,6.40
2023-04-09T10:45:41.802Z,6.75
2023-04-09T10:46:07.411Z,6.75
2023-04-09T10:48:14.778Z,7.07
2023-04-09T10:50:44.646Z,7.15
2023-04-09T10:51:07.359Z,7.15
2023-04-09T10:53:26.378Z,7.47
2023-04-09T10:55:54.052Z,6.63
2023-04-09T10:56:07.402Z,6.63
2023-04-09T10:58:20.494Z,7.35
2023-04-09T11:00:48.488Z,6.75
2023-04-09T11:01:07.370Z,6.75
2023-04-09T11:03:28.912Z,6.68
2023-04-09T11:05:57.713Z,6.70
2023-04-09T11:06:07.393Z,6.70
2023-04-09T11:08:27.667Z,7.22
2023-04-09T11:10:58.347Z,6.78
2023-04-09T11:11:07.385Z,6.78
2023-04-09T11:13:25.437Z,6.82
2023-04-09T11:15:51.877Z,6.38
2023-04-09T11:16:07.649Z,6.38
2023-04-09T11:18:23.651Z,6.50
2023-04-09T11:20:50.543Z,6.43
2023-04-09T11:21:07.405Z,6.43
2023-04-09T11:23:17.811Z,7.18
2023-04-09T11:25:49.671Z,6.55
2023-04-09T11:26:07.382Z,6.55
2023-04-09T11:28:16.305Z,6.75
2023-04-09T11:30:43.680Z,7.97
2023-04-09T11:31:07.601Z,7.97
2023-04-09T11:33:10.495Z,8.30
2023-04-09T11:35:37.379Z,7.55
2023-04-09T11:36:07.505Z,7.55
2023-04-09T11:38:11.262Z,7.10
2023-04-09T11:40:47.579Z,6.82
2023-04-09T11:41:07.376Z,6.82
2023-04-09T11:43:16.561Z,6.70
2023-04-09T11:45:44.230Z,7.97
2023-04-09T11:46:07.361Z,7.97
2023-04-09T11:48:11.596Z,9.07
2023-04-09T11:50:38.123Z,7.25
2023-04-09T11:51:07.360Z,7.25
2023-04-09T11:53:18.389Z,7.25
2023-04-09T11:55:47.760Z,7.97
2023-04-09T11:56:07.430Z,7.97
2023-04-09T11:58:14.849Z,8.10
2023-04-09T12:00:41.383Z,7.35
2023-04-09T12:01:07.368Z,7.35
2023-04-09T12:03:08.227Z,7.72
2023-04-09T12:05:39.165Z,7.95
2023-04-09T12:06:07.398Z,7.95
2023-04-09T12:10:38.089Z,7.40
2023-04-09T12:11:07.388Z,7.40
2023-04-09T12:13:10.431Z,7.35
2023-04-09T12:15:38.533Z,7.55
2023-04-09T12:16:07.531Z,7.55
2023-04-09T12:18:08.753Z,7.18
2023-04-09T12:20:39.409Z,8.43
2023-04-09T12:21:07.382Z,8.43
2023-04-09T12:23:07.348Z,7.13
2023-04-09T12:25:36.508Z,7.63
2023-04-09T12:26:07.462Z,7.63
2023-04-09T12:28:07.272Z,8.23
2023-04-09T12:30:34.798Z,7.68
2023-04-09T12:31:07.362Z,7.68
2023-04-09T12:33:01.439Z,8.40
2023-04-09T12:35:28.310Z,7.40
2023-04-09T12:36:07.454Z,7.40
2023-04-09T12:37:55.151Z,8.15
2023-04-09T12:40:22.327Z,7.05
2023-04-09T12:41:07.352Z,7.05
2023-04-09T12:42:48.988Z,7.35
2023-04-09T12:45:17.424Z,8.32
2023-04-09T12:46:07.471Z,8.32
2023-04-09T12:47:44.654Z,7.53
2023-04-09T12:50:12.836Z,7.05
2023-04-09T12:51:07.384Z,7.05
2023-04-09T12:52:39.342Z,7.75
2023-04-09T12:55:06.550Z,8.40
2023-04-09T12:56:07.387Z,8.40
2023-04-09T12:57:33.115Z,7.60
2023-04-09T13:00:00.087Z,7.30
2023-04-09T13:01:07.507Z,7.30
2023-04-09T13:02:26.857Z,9.40
2023-04-09T13:04:53.452Z,8.10
2023-04-09T13:06:07.448Z,8.10
2023-04-09T13:07:20.357Z,7.65
2023-04-09T13:09:48.921Z,7.18
2023-04-09T13:11:07.401Z,7.18
2023-04-09T13:12:16.241Z,8.88
2023-04-09T13:14:46.730Z,7.55
2023-04-09T13:16:07.511Z,7.55
2023-04-09T13:17:13.298Z,7.55
2023-04-09T13:19:42.011Z,7.28
2023-04-09T13:21:07.431Z,7.28
2023-04-09T13:22:09.177Z,7.32
2023-04-09T13:24:36.195Z,7.93
2023-04-09T13:26:07.447Z,7.93
2023-04-09T13:27:04.580Z,8.93
2023-04-09T13:29:31.354Z,7.80
2023-04-09T13:31:07.450Z,7.80
2023-04-09T13:31:58.410Z,8.32
2023-04-09T13:34:25.276Z,7.45
2023-04-09T13:36:07.493Z,7.45
2023-04-09T13:36:51.786Z,7.18
2023-04-09T13:39:18.151Z,7.78
2023-04-09T13:41:07.438Z,7.78
2023-04-09T13:41:44.591Z,7.43
2023-04-09T13:44:11.358Z,6.85
2023-04-09T13:46:07.507Z,6.85
2023-04-09T13:46:37.839Z,7.32
2023-04-09T13:49:04.243Z,7.22
2023-04-09T13:51:07.416Z,7.22
2023-04-09T13:51:33.182Z,7.22
2023-04-09T13:53:59.633Z,7.55
2023-04-09T13:56:07.416Z,7.55
2023-04-09T13:56:27.461Z,7.85
2023-04-09T13:58:54.489Z,8.70
2023-04-09T14:01:08.137Z,8.70
2023-04-09T14:01:21.469Z,7.53
2023-04-09T14:03:48.007Z,7.80
2023-04-09T14:06:07.420Z,7.80
2023-04-09T14:06:14.486Z,7.03
2023-04-09T14:08:40.949Z,7.43
2023-04-09T14:11:07.517Z,7.38
2023-04-09T14:11:07.705Z,7.38
2023-04-09T14:13:33.959Z,7.85
2023-04-09T14:16:00.641Z,6.95
2023-04-09T14:16:07.663Z,6.95
2023-04-09T14:18:27.145Z,7.00
2023-04-09T14:20:53.626Z,7.40
2023-04-09T14:21:08.699Z,7.40
2023-04-09T14:23:20.159Z,7.38
2023-04-09T14:25:46.560Z,7.00
2023-04-09T14:26:07.408Z,7.00
2023-04-09T14:28:12.927Z,6.75
2023-04-09T14:30:39.394Z,7.13
2023-04-09T14:31:07.474Z,7.13
2023-04-09T14:33:05.897Z,7.47
2023-04-09T14:35:32.334Z,7.38
2023-04-09T14:36:07.478Z,7.38
2023-04-09T14:37:58.710Z,7.90
2023-04-09T14:40:25.246Z,7.25
2023-04-09T14:41:07.412Z,7.25
2023-04-09T14:42:51.599Z,6.93
2023-04-09T14:45:18.017Z,6.85
2023-04-09T14:46:07.452Z,6.85
2023-04-09T14:47:44.556Z,6.90
2023-04-09T14:50:12.605Z,7.40
2023-04-09T14:51:07.414Z,7.40
2023-04-09T14:52:39.082Z,7.10
2023-04-09T14:55:08.972Z,6.90
2023-04-09T14:56:07.420Z,6.90
2023-04-09T14:57:35.349Z,7.32
2023-04-09T15:00:01.962Z,6.68
2023-04-09T15:01:07.383Z,6.68
2023-04-09T15:02:28.639Z,7.72
2023-04-09T15:04:55.285Z,8.88
2023-04-09T15:06:07.424Z,8.88
2023-04-09T15:07:23.820Z,7.25
2023-04-09T15:09:51.380Z,7.30
2023-04-09T15:11:07.444Z,7.30
2023-04-09T15:12:18.495Z,6.95
2023-04-09T15:14:44.917Z,6.85
2023-04-09T15:16:07.496Z,6.85
2023-04-09T15:17:11.315Z,6.85
2023-04-09T15:19:37.698Z,6.82
2023-04-09T15:21:07.491Z,6.82
2023-04-09T15:22:04.013Z,7.13
2023-04-09T15:24:30.404Z,6.28
2023-04-09T15:26:07.435Z,6.28
2023-04-09T15:26:56.915Z,8.07
2023-04-09T15:29:23.249Z,6.90
2023-04-09T15:31:07.515Z,6.90
2023-04-09T15:31:52.963Z,7.30
2023-04-09T15:34:19.415Z,6.45
2023-04-09T15:36:07.478Z,6.45
2023-04-09T15:36:46.136Z,7.28
2023-04-09T15:39:12.537Z,13.90
2023-04-09T15:41:07.448Z,13.90
2023-04-09T15:41:39.468Z,6.70
2023-04-09T15:44:07.814Z,7.38
2023-04-09T15:46:07.519Z,7.38
2023-04-09T15:46:34.379Z,7.22
2023-04-09T15:49:00.919Z,8.18
2023-04-09T15:51:07.442Z,8.18
2023-04-09T15:51:27.319Z,7.35
2023-04-09T15:53:53.729Z,6.95
2023-04-09T15:56:07.441Z,6.95
2023-04-09T15:56:20.230Z,6.57
2023-04-09T15:58:46.591Z,6.70
2023-04-09T16:01:07.460Z,6.70
2023-04-09T16:01:13.087Z,6.47
2023-04-09T16:03:40.947Z,7.05
2023-04-09T16:06:09.978Z,6.95
2023-04-09T16:06:10.188Z,6.95
2023-04-09T16:08:37.222Z,6.53
2023-04-09T16:11:04.900Z,7.28
2023-04-09T16:11:07.438Z,7.28
2023-04-09T16:13:31.403Z,6.60
2023-04-09T16:15:57.868Z,7.15
2023-04-09T16:16:07.513Z,7.15
2023-04-09T16:18:25.728Z,6.60
2023-04-09T16:20:56.459Z,6.95
2023-04-09T16:21:07.553Z,6.95
2023-04-09T16:23:29.065Z,6.60
2023-04-09T16:25:56.795Z,7.40
2023-04-09T16:26:07.444Z,7.40
2023-04-09T16:28:23.167Z,6.80
2023-04-09T16:30:50.856Z,5.82
2023-04-09T16:31:07.455Z,5.82
2023-04-09T16:33:17.341Z,6.55
2023-04-09T16:35:43.757Z,6.55
2023-04-09T16:36:07.420Z,6.55
2023-04-09T16:38:10.423Z,7.38
2023-04-09T16:40:36.946Z,6.88
2023-04-09T16:41:07.449Z,6.88
2023-04-09T16:43:03.638Z,7.05
2023-04-09T16:45:30.293Z,7.03
2023-04-09T16:46:07.663Z,7.03
2023-04-09T16:47:56.715Z,5.72
2023-04-09T16:50:23.398Z,6.43
2023-04-09T16:51:07.451Z,6.43
2023-04-09T16:52:49.812Z,7.13
2023-04-09T16:55:16.467Z,6.72
2023-04-09T16:56:07.447Z,6.72
2023-04-09T16:57:43.000Z,6.35
2023-04-09T17:00:10.474Z,6.95
2023-04-09T17:01:07.434Z,6.95
2023-04-09T17:02:37.064Z,6.32
2023-04-09T17:05:04.341Z,7.10
2023-04-09T17:06:07.448Z,7.10
2023-04-09T17:07:30.820Z,5.93
2023-04-09T17:09:57.224Z,6.07
2023-04-09T17:11:07.507Z,6.07
2023-04-09T17:12:24.431Z,5.60
2023-04-09T17:14:51.553Z,5.95
2023-04-09T17:16:07.435Z,5.95
2023-04-09T17:17:18.562Z,5.80
2023-04-09T17:19:45.113Z,5.68
2023-04-09T17:21:07.554Z,5.68
2023-04-09T17:22:13.394Z,6.30
2023-04-09T17:24:39.978Z,6.13
2023-04-09T17:26:07.451Z,6.13
2023-04-09T17:27:07.109Z,5.57
2023-04-09T17:29:34.290Z,6.50
2023-04-09T17:32:00.685Z,5.95
2023-04-09T17:34:27.210Z,6.78
2023-04-09T17:36:07.541Z,6.78
2023-04-09T17:36:57.202Z,6.30
2023-04-09T17:39:26.581Z,6.22
2023-04-09T17:41:07.766Z,6.22
2023-04-09T17:41:53.633Z,5.93
2023-04-09T17:44:20.574Z,7.72
2023-04-09T17:46:07.547Z,7.72
2023-04-09T17:46:47.094Z,6.57
2023-04-09T17:49:13.570Z,5.78
2023-04-09T17:51:07.464Z,5.78
2023-04-09T17:51:39.921Z,6.30
2023-04-09T17:54:06.648Z,6.90
2023-04-09T17:56:07.476Z,6.90
2023-04-09T17:56:35.374Z,6.45
2023-04-09T17:59:02.166Z,5.70
2023-04-09T18:01:07.625Z,5.70
2023-04-09T18:01:28.793Z,5.88
2023-04-09T18:03:55.453Z,6.45
2023-04-09T18:06:07.479Z,6.45
2023-04-09T18:06:21.964Z,5.70
2023-04-09T18:08:50.114Z,5.88
2023-04-09T18:11:18.351Z,5.18
2023-04-09T18:13:44.868Z,5.78
2023-04-09T18:16:07.550Z,5.78
2023-04-09T18:16:14.676Z,6.18
2023-04-09T18:18:41.351Z,6.35
2023-04-09T18:21:07.884Z,5.82
2023-04-09T18:21:08.542Z,5.82
2023-04-09T18:23:34.749Z,6.57
2023-04-09T18:26:01.160Z,6.13
2023-04-09T18:26:07.479Z,6.13
2023-04-09T18:28:28.107Z,5.80
2023-04-09T18:30:54.775Z,6.10
2023-04-09T18:31:07.466Z,6.10
2023-04-09T18:33:21.431Z,6.60
2023-04-09T18:35:48.949Z,5.78
2023-04-09T18:36:07.475Z,5.78
2023-04-09T18:38:15.418Z,6.45
2023-04-09T18:40:45.709Z,6.13
2023-04-09T18:41:07.475Z,6.13
2023-04-09T18:43:12.489Z,6.18
2023-04-09T18:45:41.812Z,7.95
2023-04-09T18:46:07.501Z,7.95
2023-04-09T18:48:08.955Z,6.20
2023-04-09T18:50:35.666Z,6.32
2023-04-09T18:51:07.511Z,6.32
2023-04-09T18:53:03.666Z,6.50
2023-04-09T18:55:30.397Z,7.10
2023-04-09T18:56:07.480Z,7.10
2023-04-09T18:57:57.463Z,7.35
2023-04-09T19:00:24.203Z,5.45
2023-04-09T19:01:07.466Z,5.45
2023-04-09T19:02:50.807Z,7.13
2023-04-09T19:05:17.533Z,6.05
2023-04-09T19:06:07.472Z,6.05
2023-04-09T19:07:43.835Z,6.45
2023-04-09T19:10:10.693Z,6.50
2023-04-09T19:11:08.493Z,6.50
2023-04-09T19:12:37.642Z,6.70
2023-04-09T19:15:04.769Z,6.55
2023-04-09T19:16:07.536Z,6.55
2023-04-09T19:17:31.877Z,6.10
2023-04-09T19:19:58.439Z,6.30
2023-04-09T19:21:07.571Z,6.30
2023-04-09T19:22:24.823Z,5.68
2023-04-09T19:24:51.494Z,9.13
2023-04-09T19:26:07.452Z,9.13
2023-04-09T19:27:18.578Z,7.72
2023-04-09T19:29:46.565Z,6.57
2023-04-09T19:31:07.508Z,6.57
2023-04-09T19:32:13.309Z,5.82
2023-04-09T19:34:39.821Z,5.65
2023-04-09T19:36:07.536Z,5.65
2023-04-09T19:37:06.201Z,5.85
2023-04-09T19:39:35.279Z,5.93
2023-04-09T19:41:07.496Z,5.93
2023-04-09T19:42:03.104Z,5.85
2023-04-09T19:44:29.425Z,6.68
2023-04-09T19:46:07.475Z,6.68
2023-04-09T19:46:55.808Z,6.40
2023-04-09T19:49:22.192Z,6.30
2023-04-09T19:51:07.490Z,6.30
2023-04-09T19:51:49.169Z,6.07
2023-04-09T19:54:16.532Z,5.47
2023-04-09T19:56:07.522Z,5.47
2023-04-09T19:56:42.977Z,6.22
2023-04-09T19:59:09.359Z,7.25
2023-04-09T20:01:07.496Z,7.25
2023-04-09T20:01:36.003Z,6.93
2023-04-09T20:04:02.682Z,5.90
2023-04-09T20:06:07.502Z,5.90
2023-04-09T20:06:30.737Z,6.22
2023-04-09T20:08:57.284Z,7.13
2023-04-09T20:11:07.466Z,7.13
2023-04-09T20:11:23.729Z,5.72
2023-04-09T20:13:50.231Z,5.90
2023-04-09T20:16:07.487Z,5.90
2023-04-09T20:16:17.000Z,6.35
2023-04-09T20:18:43.527Z,6.22
2023-04-09T20:21:07.567Z,6.22
2023-04-09T20:21:13.973Z,6.93
2023-04-09T20:23:40.759Z,5.43
2023-04-09T20:26:09.639Z,6.00
2023-04-09T20:26:09.801Z,6.00
2023-04-09T20:28:36.009Z,8.10
2023-04-09T20:31:06.080Z,5.60
2023-04-09T20:31:07.480Z,5.60
2023-04-09T20:33:32.467Z,6.60
2023-04-09T20:35:59.147Z,6.85
2023-04-09T20:36:07.491Z,6.85
2023-04-09T20:38:25.688Z,12.75
2023-04-09T20:40:52.741Z,5.90
2023-04-09T20:41:07.517Z,5.90
2023-04-09T20:43:20.323Z,6.22
2023-04-09T20:45:47.376Z,6.57
2023-04-09T20:46:07.568Z,6.57
2023-04-09T20:48:14.835Z,7.07
2023-04-09T20:50:41.326Z,5.38
2023-04-09T20:51:07.524Z,5.38
2023-04-09T20:53:07.967Z,8.63
2023-04-09T20:55:35.618Z,6.13
2023-04-09T20:56:07.479Z,6.13
2023-04-09T20:58:02.826Z,5.53
2023-04-09T21:00:29.636Z,6.38
2023-04-09T21:01:07.554Z,6.38
2023-04-09T21:02:56.146Z,6.68
2023-04-09T21:05:24.250Z,7.72
2023-04-09T21:06:07.480Z,7.72
2023-04-09T21:07:52.367Z,6.97
2023-04-09T21:10:19.042Z,7.78
2023-04-09T21:11:07.491Z,7.78
2023-04-09T21:12:45.581Z,6.45
2023-04-09T21:15:11.964Z,6.72
2023-04-09T21:16:07.481Z,6.72
2023-04-09T21:17:38.443Z,6.97
2023-04-09T21:20:05.624Z,5.82
2023-04-09T21:21:07.605Z,5.82
2023-04-09T21:22:33.697Z,6.07
2023-04-09T21:25:00.145Z,5.20
2023-04-09T21:26:07.469Z,5.20
2023-04-09T21:27:26.602Z,6.25
2023-04-09T21:29:53.594Z,5.68
2023-04-09T21:31:07.657Z,5.68
2023-04-09T21:32:20.114Z,5.75
2023-04-09T21:34:46.543Z,6.20
2023-04-09T21:36:07.540Z,6.20
2023-04-09T21:37:12.986Z,6.03
2023-04-09T21:39:41.763Z,7.15
2023-04-09T21:41:07.513Z,7.15
2023-04-09T21:42:08.756Z,6.30
2023-04-09T21:44:35.327Z,7.10
2023-04-09T21:46:07.515Z,7.10
2023-04-09T21:47:01.820Z,7.25
2023-04-09T21:49:28.194Z,12.93
2023-04-09T21:51:07.517Z,12.93